| time (UTC) | temp F | wind direction | speed MPH | gust MPH | rain 1hr in | rain 24hr in | rain mn in | humidity % | barometer mb |
| 20260905063050 | 79 | 0 | 0.0 | 1.0 | 0.00 | 0.07 | 0.00 | 79 | 1013.6 |
| 20260905061544 | 80 | 0 | 0.0 | 1.0 | 0.00 | 0.07 | 0.00 | 78 | 1013.7 |
| 20260905060047 | 80 | 0 | 0.0 | 1.0 | 0.00 | 0.07 | 0.00 | 77 | 1013.7 |
| 20260905054548 | 80 | 166 | 0.0 | 2.0 | 0.00 | 0.07 | 0.00 | 77 | 1013.5 |
| 20260905053040 | 81 | 0 | 0.0 | 2.0 | 0.00 | 0.07 | 0.00 | 76 | 1013.3 |
| 20260905051544 | 81 | 0 | 0.0 | 1.0 | 0.00 | 0.07 | 0.00 | 75 | 1013.5 |
| 20260905050043 | 81 | 0 | 0.0 | 1.0 | 0.00 | 0.07 | 0.00 | 73 | 1013.6 |
| 20260905044542 | 82 | 195 | 0.0 | 2.0 | 0.00 | 0.07 | 0.07 | 73 | 1013.6 |
| 20260905043040 | 82 | 0 | 1.0 | 3.0 | 0.00 | 0.07 | 0.07 | 72 | 1013.7 |
| 20260905041539 | 82 | 0 | 0.0 | 1.0 | 0.00 | 0.07 | 0.07 | 70 | 1013.7 |
| 20260905040040 | 82 | 228 | 0.0 | 2.0 | 0.00 | 0.07 | 0.07 | 69 | 1013.5 |
| 20260905034540 | 83 | 0 | 0.0 | 2.0 | 0.00 | 0.07 | 0.07 | 68 | 1013.7 |
| 20260905033038 | 83 | 203 | 0.0 | 5.0 | 0.00 | 0.07 | 0.07 | 66 | 1013.5 |
| 20260905031545 | 83 | 0 | 0.0 | 5.0 | 0.00 | 0.07 | 0.07 | 66 | 1013.4 |
| 20260905030039 | 83 | 0 | 0.0 | 2.0 | 0.00 | 0.07 | 0.07 | 65 | 1013.2 |
| 20260905024546 | 84 | 0 | 0.0 | 2.0 | 0.00 | 0.07 | 0.07 | 64 | 1013.0 |
| 20260905023039 | 85 | 0 | 0.0 | 4.0 | 0.00 | 0.07 | 0.07 | 62 | 1012.8 |
| 20260905021545 | 85 | 0 | 0.0 | 3.0 | 0.00 | 0.07 | 0.07 | 62 | 1012.7 |
| 20260905020040 | 86 | 0 | 0.0 | 3.0 | 0.00 | 0.07 | 0.07 | 62 | 1012.5 |
| 20260905014550 | 86 | 0 | 1.0 | 4.0 | 0.00 | 0.07 | 0.07 | 60 | 1012.4 |
| 20260905013040 | 87 | 0 | 0.0 | 2.0 | 0.00 | 0.07 | 0.07 | 58 | 1012.3 |
| 20260905011540 | 87 | 0 | 0.0 | 1.0 | 0.00 | 0.07 | 0.07 | 50 | 1012.1 |
| 20260905010039 | 88 | 0 | 0.0 | 2.0 | 0.00 | 0.07 | 0.07 | 47 | 1012.1 |
| 20260905004539 | 89 | 0 | 0.0 | 1.0 | 0.00 | 0.07 | 0.07 | 45 | 1012.0 |
| 20260905003043 | 90 | 217 | 0.0 | 4.0 | 0.00 | 0.07 | 0.07 | 43 | 1011.9 |
| 20260905001540 | 90 | 0 | 0.0 | 2.0 | 0.00 | 0.07 | 0.07 | 44 | 1011.7 |
| 20260905000039 | 91 | 0 | 1.0 | 6.0 | 0.00 | 0.07 | 0.07 | 42 | 1011.5 |
| 20260904234545 | 92 | 49 | 0.0 | 4.0 | 0.00 | 0.07 | 0.07 | 45 | 1011.3 |
| 20260904233048 | 93 | 47 | 1.0 | 7.0 | 0.00 | 0.07 | 0.07 | 43 | 1011.2 |
| 20260904231544 | 94 | 0 | 1.0 | 6.0 | 0.00 | 0.07 | 0.07 | 44 | 1011.2 |
| 20260904230040 | 94 | 43 | 0.0 | 7.0 | 0.00 | 0.07 | 0.07 | 44 | 1011.2 |
| 20260904224541 | 93 | 52 | 2.0 | 8.0 | 0.00 | 0.07 | 0.07 | 43 | 1011.5 |
| 20260904223047 | 93 | 34 | 1.0 | 6.0 | 0.00 | 0.07 | 0.07 | 44 | 1011.5 |
| 20260904221547 | 93 | 134 | 2.0 | 10.0 | 0.00 | 0.07 | 0.07 | 46 | 1011.6 |
| 20260904220104 | 96 | 62 | 1.0 | 5.0 | 0.00 | 0.07 | 0.07 | 42 | 1011.6 |
| 20260904214542 | 96 | 222 | 1.0 | 6.0 | 0.00 | 0.07 | 0.07 | 40 | 1011.6 |
| 20260904213044 | 95 | 53 | 0.0 | 4.0 | 0.00 | 0.07 | 0.07 | 43 | 1011.9 |
| 20260904211550 | 93 | 79 | 3.0 | 6.0 | 0.00 | 0.07 | 0.07 | 49 | 1012.1 |
| 20260904210045 | 94 | 0 | 2.0 | 10.0 | 0.00 | 0.07 | 0.07 | 47 | 1012.3 |
| 20260904204538 | 94 | 210 | 2.0 | 9.0 | 0.00 | 0.07 | 0.07 | 47 | 1012.4 |
| 20260904203040 | 93 | 56 | 4.0 | 10.0 | 0.00 | 0.07 | 0.07 | 50 | 1012.6 |
| 20260904201540 | 94 | 259 | 0.0 | 8.0 | 0.00 | 0.07 | 0.07 | 49 | 1012.5 |
| 20260904200052 | 94 | 65 | 1.0 | 7.0 | 0.00 | 0.07 | 0.07 | 51 | 1012.7 |
| 20260904194620 | 92 | 123 | 3.0 | 9.0 | 0.00 | 0.07 | 0.07 | 55 | 1013.0 |
| 20260904193044 | 93 | 73 | 5.0 | 11.0 | 0.00 | 0.07 | 0.07 | 54 | 1013.2 |
| 20260904191539 | 93 | 45 | 4.0 | 8.0 | 0.00 | 0.07 | 0.07 | 54 | 1013.3 |
| 20260904190046 | 92 | 9 | 4.0 | 10.0 | 0.00 | 0.07 | 0.07 | 54 | 1013.5 |
| 20260904184552 | 93 | 57 | 1.0 | 7.0 | 0.00 | 0.07 | 0.07 | 54 | 1013.7 |
| 20260904183043 | 93 | 235 | 1.0 | 4.0 | 0.00 | 0.07 | 0.07 | 54 | 1013.7 |
| 20260904181544 | 93 | 245 | 3.0 | 6.0 | 0.00 | 0.07 | 0.07 | 54 | 1013.7 |
| 20260904180042 | 93 | 217 | 1.0 | 7.0 | 0.00 | 0.07 | 0.07 | 53 | 1014.1 |
| 20260904174539 | 92 | 0 | 0.0 | 7.0 | 0.00 | 0.07 | 0.07 | 58 | 1014.2 |
| 20260904173059 | 90 | 0 | 0.0 | 5.0 | 0.00 | 0.07 | 0.07 | 62 | 1014.5 |
| 20260904171541 | 90 | 232 | 1.0 | 5.0 | 0.00 | 0.07 | 0.07 | 62 | 1014.6 |
| 20260904170040 | 89 | 0 | 0.0 | 4.0 | 0.00 | 0.07 | 0.07 | 64 | 1014.6 |
| 20260904164545 | 89 | 0 | 1.0 | 5.0 | 0.00 | 0.07 | 0.07 | 68 | 1014.5 |
| 20260904163039 | 87 | 0 | 0.0 | 4.0 | 0.00 | 0.07 | 0.07 | 73 | 1014.7 |
| 20260904161545 | 84 | 307 | 0.0 | 4.0 | 0.00 | 0.07 | 0.07 | 79 | 1014.9 |
| 20260904160040 | 83 | 0 | 0.0 | 5.0 | 0.00 | 0.07 | 0.07 | 84 | 1014.9 |
| 20260904154539 | 81 | 0 | 0.0 | 3.0 | 0.00 | 0.07 | 0.07 | 89 | 1014.7 |
| 20260904153043 | 80 | 0 | 0.0 | 3.0 | 0.02 | 0.07 | 0.07 | 91 | 1014.6 |
| 20260904151544 | 79 | 0 | 0.0 | 0.0 | 0.03 | 0.07 | 0.07 | 93 | 1014.7 |
| 20260904150040 | 78 | 0 | 0.0 | 3.0 | 0.04 | 0.07 | 0.07 | 92 | 1014.9 |
| 20260904144540 | 78 | 0 | 0.0 | 1.0 | 0.04 | 0.07 | 0.07 | 93 | 1014.5 |
| 20260904143039 | 78 | 0 | 0.0 | 0.0 | 0.02 | 0.05 | 0.05 | 93 | 1014.8 |
| 20260904141607 | 78 | 0 | 0.0 | 0.0 | 0.01 | 0.04 | 0.04 | 93 | 1014.9 |
| 20260904140054 | 77 | 0 | 0.0 | 0.0 | 0.00 | 0.03 | 0.03 | 93 | 1014.9 |
| 20260904134545 | 77 | 0 | 0.0 | 0.0 | 0.02 | 0.03 | 0.03 | 93 | 1014.5 |
| 20260904133053 | 77 | 0 | 0.0 | 0.0 | 0.03 | 0.03 | 0.03 | 93 | 1014.3 |
| 20260904131539 | 77 | 0 | 0.0 | 0.0 | 0.03 | 0.03 | 0.03 | 92 | 1014.4 |
| 20260904130039 | 77 | 0 | 0.0 | 3.0 | 0.02 | 0.02 | 0.02 | 91 | 1014.4 |
| 20260904124539 | 78 | 0 | 0.0 | 0.0 | 0.01 | 0.01 | 0.01 | 89 | 1014.2 |
| 20260904123042 | 78 | 0 | 0.0 | 3.0 | 0.00 | 0.00 | 0.00 | 88 | 1013.9 |
| 20260904121547 | 78 | 0 | 0.0 | 1.0 | 0.00 | 0.00 | 0.00 | 88 | 1013.7 |
| 20260904120045 | 78 | 0 | 0.0 | 2.0 | 0.00 | 0.00 | 0.00 | 88 | 1013.4 |
| 20260904114540 | 78 | 0 | 0.0 | 2.0 | 0.00 | 0.00 | 0.00 | 87 | 1012.9 |
| 20260904113042 | 79 | 226 | 0.0 | 3.0 | 0.00 | 0.00 | 0.00 | 85 | 1012.8 |
| 20260904111538 | 79 | 220 | 0.0 | 2.0 | 0.00 | 0.00 | 0.00 | 85 | 1012.8 |
| 20260904110041 | 79 | 0 | 0.0 | 1.0 | 0.00 | 0.00 | 0.00 | 85 | 1012.7 |
| 20260904104540 | 79 | 0 | 0.0 | 1.0 | 0.00 | 0.00 | 0.00 | 85 | 1012.6 |
| 20260904103048 | 79 | 0 | 0.0 | 0.0 | 0.00 | 0.00 | 0.00 | 84 | 1012.5 |
| 20260904101541 | 79 | 0 | 0.0 | 4.0 | 0.00 | 0.00 | 0.00 | 84 | 1012.4 |
| 20260904100038 | 79 | 0 | 0.0 | 0.0 | 0.00 | 0.00 | 0.00 | 84 | 1012.5 |
| 20260904094539 | 79 | 0 | 0.0 | 1.0 | 0.00 | 0.00 | 0.00 | 83 | 1012.4 |
| 20260904093039 | 79 | 0 | 0.0 | 1.0 | 0.00 | 0.00 | 0.00 | 83 | 1012.3 |
| 20260904091541 | 79 | 0 | 0.0 | 0.0 | 0.00 | 0.00 | 0.00 | 83 | 1012.3 |
| 20260904090049 | 79 | 0 | 0.0 | 1.0 | 0.00 | 0.00 | 0.00 | 83 | 1012.3 |
| 20260904084539 | 79 | 0 | 0.0 | 2.0 | 0.00 | 0.00 | 0.00 | 83 | 1012.3 |
| 20260904083040 | 79 | 0 | 0.0 | 1.0 | 0.00 | 0.00 | 0.00 | 82 | 1012.6 |
| 20260904081546 | 79 | 209 | 0.0 | 3.0 | 0.00 | 0.00 | 0.00 | 82 | 1012.5 |
| 20260904080048 | 79 | 0 | 0.0 | 2.0 | 0.00 | 0.00 | 0.00 | 82 | 1012.5 |
| 20260904074538 | 79 | 209 | 1.0 | 5.0 | 0.00 | 0.00 | 0.00 | 81 | 1012.4 |
| 20260904073048 | 79 | 0 | 0.0 | 5.0 | 0.00 | 0.00 | 0.00 | 81 | 1012.4 |
| 20260904071539 | 79 | 57 | 2.0 | 6.0 | 0.00 | 0.00 | 0.00 | 81 | 1012.7 |
| 20260904070039 | 79 | 229 | 1.0 | 6.0 | 0.00 | 0.00 | 0.00 | 81 | 1012.7 |
| 20260904064537 | 79 | 0 | 0.0 | 2.0 | 0.00 | 0.00 | 0.00 | 80 | 1012.7 |